Husk, North Carolina
Current Conditions -  °F | °C
As of 8:55 AM on Wednesday 26 Nov 2014 (Local Time) from KGEV Reporting Station
Moderate Snow Moderate Snow  
Wind Chill: 32°   Ceiling: 400
Heat Index: 32°   Visibility: 0.5mi
Dew Point: 32°   Wind: 0mph
Humidity: 100%   Direction: NA
Pressure: 29.96"   Gusts: NA
Location:  36.524°N, 81.538°W
Report Text: KGEV 261355Z AUTO 00000KT 1/2SM SN OVC004 00/00 A2996 RMK AO2 P0008 T00020002
Loading
Personal Weather Stations






























Interactive Weather Map New forecast layout! Learn more

10-Day Weather Forecast

Advertisements
Track Severe Weather on mobile